createdAt,value
2017-11-19T00:00:09.415Z,0
2017-11-19T00:00:49.937Z,0
2017-11-19T00:01:30.225Z,0
2017-11-19T00:02:10.724Z,0
2017-11-19T00:02:51.653Z,0
2017-11-19T00:03:32.235Z,0
2017-11-19T00:04:12.592Z,0
2017-11-19T00:04:53.060Z,0
2017-11-19T00:05:33.516Z,0
2017-11-19T00:06:13.809Z,0
2017-11-19T00:06:54.216Z,0
2017-11-19T00:07:34.646Z,0
2017-11-19T00:08:15.142Z,0
2017-11-19T00:08:55.434Z,0
2017-11-19T00:09:36.308Z,0
2017-11-19T00:10:16.841Z,0
2017-11-19T00:10:57.215Z,0
2017-11-19T00:11:37.608Z,0
2017-11-19T00:12:18.029Z,0
2017-11-19T00:12:58.553Z,0
2017-11-19T00:13:39.116Z,0
2017-11-19T00:14:19.562Z,0
2017-11-19T00:14:59.940Z,0
2017-11-19T00:15:40.404Z,0
2017-11-19T00:16:20.825Z,0
2017-11-19T00:17:01.532Z,0
2017-11-19T00:17:41.958Z,0
2017-11-19T00:18:22.367Z,0
2017-11-19T00:19:02.841Z,0
2017-11-19T00:19:43.347Z,0
2017-11-19T00:20:23.703Z,0
2017-11-19T00:21:04.248Z,0
2017-11-19T00:21:44.843Z,0
2017-11-19T00:22:25.155Z,0
2017-11-19T00:23:05.625Z,0
2017-11-19T00:23:46.077Z,0
2017-11-19T00:24:26.505Z,0
2017-11-19T00:25:06.978Z,0
2017-11-19T00:25:47.433Z,0
2017-11-19T00:26:27.825Z,0
2017-11-19T00:27:08.287Z,0
2017-11-19T00:27:48.709Z,0
2017-11-19T00:28:29.388Z,0
2017-11-19T00:29:09.565Z,0
2017-11-19T00:29:50.023Z,0
2017-11-19T00:30:30.517Z,0
2017-11-19T00:31:11.075Z,0
2017-11-19T00:31:51.434Z,0
2017-11-19T00:32:31.858Z,0
2017-11-19T00:33:12.409Z,0
2017-11-19T00:33:52.912Z,0
2017-11-19T00:34:33.414Z,0
2017-11-19T00:35:13.846Z,0
2017-11-19T00:35:54.355Z,0
2017-11-19T00:36:34.813Z,0
2017-11-19T00:37:15.357Z,0
2017-11-19T00:37:55.697Z,0
2017-11-19T00:38:36.723Z,0
2017-11-19T00:39:18.146Z,0
2017-11-19T00:39:59.412Z,0
2017-11-19T00:40:39.802Z,0
2017-11-19T00:41:20.713Z,0
2017-11-19T00:42:02.050Z,0
2017-11-19T00:42:43.293Z,0
2017-11-19T00:43:23.743Z,0
2017-11-19T00:44:04.151Z,0
2017-11-19T00:44:44.460Z,0
2017-11-19T00:45:25.012Z,0
2017-11-19T00:46:05.542Z,0
2017-11-19T00:46:46.854Z,0
2017-11-19T00:47:29.347Z,0
2017-11-19T00:48:12.623Z,0
2017-11-19T00:48:58.657Z,0
2017-11-19T00:49:40.151Z,0
2017-11-19T00:50:21.143Z,0
2017-11-19T00:51:02.196Z,0
2017-11-19T00:51:44.017Z,0
2017-11-19T00:52:24.399Z,0
2017-11-19T00:53:04.793Z,0
2017-11-19T00:53:45.849Z,0
2017-11-19T00:54:28.085Z,0
2017-11-19T00:55:10.133Z,0
2017-11-19T00:55:51.499Z,0
2017-11-19T00:56:33.003Z,0
2017-11-19T00:57:16.768Z,0
2017-11-19T00:57:58.405Z,0
2017-11-19T00:58:40.486Z,0
2017-11-19T00:59:22.665Z,0
2017-11-19T01:00:03.152Z,0
2017-11-19T01:00:43.671Z,0
2017-11-19T01:01:24.136Z,0
2017-11-19T01:02:04.745Z,0
2017-11-19T01:02:45.264Z,0
2017-11-19T01:03:25.707Z,0
2017-11-19T01:04:06.286Z,0
2017-11-19T01:04:48.314Z,0
2017-11-19T01:05:28.851Z,0
2017-11-19T01:06:09.116Z,0
2017-11-19T01:06:49.608Z,0
2017-11-19T01:07:30.128Z,0
2017-11-19T01:08:10.566Z,0
2017-11-19T01:08:51.164Z,0
2017-11-19T01:09:32.397Z,0
2017-11-19T01:10:12.875Z,0
2017-11-19T01:10:53.266Z,0
2017-11-19T01:11:33.751Z,0
2017-11-19T01:12:14.130Z,0
2017-11-19T01:12:54.557Z,0
2017-11-19T01:13:34.978Z,0
2017-11-19T01:14:15.371Z,0
2017-11-19T01:14:55.807Z,0
2017-11-19T01:15:36.281Z,0
2017-11-19T01:16:16.781Z,0
2017-11-19T01:16:57.237Z,0
2017-11-19T01:17:37.904Z,0
2017-11-19T01:18:18.275Z,0
2017-11-19T01:18:58.751Z,0
2017-11-19T01:19:39.362Z,0
2017-11-19T01:20:19.799Z,0
2017-11-19T01:21:00.244Z,0
2017-11-19T01:21:40.590Z,0
2017-11-19T01:22:21.047Z,0
2017-11-19T01:23:02.058Z,0
2017-11-19T01:23:42.568Z,0
2017-11-19T01:24:22.960Z,0
2017-11-19T01:25:03.369Z,0
2017-11-19T01:25:43.914Z,0
2017-11-19T01:26:25.082Z,0
2017-11-19T01:27:05.704Z,0
2017-11-19T01:27:46.658Z,0
2017-11-19T01:28:26.648Z,0
2017-11-19T01:29:07.145Z,0
2017-11-19T01:29:47.736Z,0
2017-11-19T01:30:30.085Z,0
2017-11-19T01:31:10.865Z,0
2017-11-19T01:31:52.288Z,0
2017-11-19T01:32:33.416Z,0
2017-11-19T01:33:13.976Z,0
2017-11-19T01:33:54.421Z,0
2017-11-19T01:34:34.843Z,0
2017-11-19T01:35:15.412Z,0
2017-11-19T01:35:56.152Z,0
2017-11-19T01:36:37.367Z,0
2017-11-19T01:37:17.880Z,0
2017-11-19T01:37:58.374Z,0
2017-11-19T01:38:38.899Z,0
2017-11-19T01:39:19.637Z,0
2017-11-19T01:40:00.060Z,0
2017-11-19T01:40:40.618Z,0
2017-11-19T01:41:21.017Z,0
2017-11-19T01:42:02.579Z,0
2017-11-19T01:42:43.220Z,0
2017-11-19T01:43:25.055Z,0
2017-11-19T01:44:05.530Z,0
2017-11-19T01:44:45.971Z,0
2017-11-19T01:45:26.452Z,0
2017-11-19T01:46:07.081Z,0
2017-11-19T01:46:47.569Z,0
2017-11-19T01:47:27.967Z,0
2017-11-19T01:48:08.438Z,0
2017-11-19T01:48:48.890Z,0
2017-11-19T01:49:29.439Z,0
2017-11-19T01:50:09.946Z,0
2017-11-19T01:50:50.781Z,0
2017-11-19T01:51:31.282Z,0
2017-11-19T01:52:12.157Z,0
2017-11-19T01:52:52.537Z,0
2017-11-19T01:53:33.113Z,0
2017-11-19T01:54:13.563Z,0
2017-11-19T01:54:53.963Z,0
2017-11-19T01:55:34.356Z,0
2017-11-19T01:56:14.702Z,0
2017-11-19T01:56:55.162Z,0
2017-11-19T01:57:35.556Z,0
2017-11-19T01:58:16.198Z,0
2017-11-19T01:58:56.909Z,0
2017-11-19T01:59:37.368Z,0
2017-11-19T02:00:17.825Z,0
2017-11-19T02:00:58.257Z,0
2017-11-19T02:01:38.812Z,0
2017-11-19T02:02:19.176Z,0
2017-11-19T02:02:59.740Z,0
2017-11-19T02:03:40.157Z,0
2017-11-19T02:04:21.045Z,0
2017-11-19T02:05:01.557Z,0
2017-11-19T02:05:42.000Z,0
2017-11-19T02:06:23.500Z,0
2017-11-19T02:07:03.942Z,0
2017-11-19T02:07:44.812Z,0
2017-11-19T02:08:25.351Z,0
2017-11-19T02:09:05.912Z,0
2017-11-19T02:09:47.557Z,0
2017-11-19T02:10:27.853Z,0
2017-11-19T02:11:08.390Z,0
2017-11-19T02:11:48.791Z,0
2017-11-19T02:12:29.278Z,0
2017-11-19T02:13:09.754Z,0
2017-11-19T02:13:50.196Z,0
2017-11-19T02:14:30.616Z,0
2017-11-19T02:15:11.056Z,0
2017-11-19T02:15:51.645Z,0
2017-11-19T02:16:32.060Z,0
2017-11-19T02:17:12.702Z,0
2017-11-19T02:17:53.914Z,0
2017-11-19T02:18:34.729Z,0
2017-11-19T02:19:15.073Z,0
2017-11-19T02:19:55.420Z,0
2017-11-19T02:20:35.810Z,0
2017-11-19T02:21:16.249Z,0
2017-11-19T02:21:56.866Z,0
2017-11-19T02:22:37.321Z,0
2017-11-19T02:23:17.700Z,0
2017-11-19T02:23:58.119Z,0
2017-11-19T02:24:38.540Z,0
2017-11-19T02:25:20.025Z,0
2017-11-19T02:26:00.253Z,0
2017-11-19T02:26:40.653Z,0
2017-11-19T02:27:21.099Z,0
2017-11-19T02:28:01.727Z,0
2017-11-19T02:28:42.071Z,0
2017-11-19T02:29:22.597Z,0
2017-11-19T02:30:03.116Z,0
2017-11-19T02:30:43.643Z,0
2017-11-19T02:31:24.022Z,0
2017-11-19T02:32:04.536Z,0
2017-11-19T02:32:45.839Z,0
2017-11-19T02:33:26.580Z,0
2017-11-19T02:34:07.033Z,0
2017-11-19T02:34:47.771Z,0
2017-11-19T02:35:28.385Z,0
2017-11-19T02:36:08.756Z,0
2017-11-19T02:36:50.099Z,0
2017-11-19T02:37:31.901Z,0
2017-11-19T02:38:12.319Z,0
2017-11-19T02:38:53.593Z,0
2017-11-19T02:39:33.935Z,0
2017-11-19T02:40:14.107Z,0
2017-11-19T02:40:54.561Z,0
2017-11-19T02:41:35.146Z,0
2017-11-19T02:42:15.654Z,0
2017-11-19T02:42:56.241Z,0
2017-11-19T02:43:37.036Z,0
2017-11-19T02:44:17.741Z,0
2017-11-19T02:44:58.253Z,0
2017-11-19T02:45:39.110Z,0
2017-11-19T02:46:19.724Z,0
2017-11-19T02:47:00.145Z,0
2017-11-19T02:47:40.683Z,0
2017-11-19T02:48:21.153Z,0
2017-11-19T02:49:04.021Z,0
2017-11-19T02:49:44.896Z,0
2017-11-19T02:50:25.236Z,0
2017-11-19T02:51:05.724Z,0
2017-11-19T02:51:46.150Z,0
2017-11-19T02:52:26.509Z,0
2017-11-19T02:53:06.968Z,0
2017-11-19T02:53:47.380Z,0
2017-11-19T02:54:27.845Z,0
2017-11-19T02:55:08.189Z,0
2017-11-19T02:55:48.662Z,0
2017-11-19T02:56:29.039Z,0
2017-11-19T02:57:09.629Z,0
2017-11-19T02:57:50.164Z,0
2017-11-19T02:58:30.518Z,0
2017-11-19T02:59:10.962Z,0
2017-11-19T02:59:51.893Z,0
2017-11-19T03:00:32.324Z,0
2017-11-19T03:01:12.696Z,0
2017-11-19T03:01:52.981Z,0
2017-11-19T03:02:33.896Z,0
2017-11-19T03:03:14.251Z,0
2017-11-19T03:03:54.735Z,0
2017-11-19T03:04:35.165Z,0
2017-11-19T03:05:15.508Z,0
2017-11-19T03:05:55.998Z,0
2017-11-19T03:06:36.548Z,0
2017-11-19T03:07:17.231Z,0
2017-11-19T03:07:57.705Z,0
2017-11-19T03:08:38.820Z,0
2017-11-19T03:09:19.160Z,0
2017-11-19T03:09:59.670Z,0
2017-11-19T03:10:40.515Z,0
2017-11-19T03:11:20.646Z,0
2017-11-19T03:12:01.543Z,0
2017-11-19T03:12:41.997Z,0
2017-11-19T03:13:22.456Z,0
2017-11-19T03:14:02.873Z,0
2017-11-19T03:14:43.614Z,0
2017-11-19T03:15:23.997Z,0
2017-11-19T03:16:04.406Z,0
2017-11-19T03:16:44.843Z,0
2017-11-19T03:17:25.532Z,0
2017-11-19T03:18:06.604Z,0
2017-11-19T03:18:47.060Z,0
2017-11-19T03:19:27.569Z,0
2017-11-19T03:20:07.925Z,0
2017-11-19T03:20:48.497Z,0
2017-11-19T03:21:28.932Z,0
2017-11-19T03:22:09.359Z,0
2017-11-19T03:22:49.848Z,0
2017-11-19T03:23:30.361Z,0
2017-11-19T03:24:10.739Z,0
2017-11-19T03:24:51.387Z,0
2017-11-19T03:25:32.198Z,0
2017-11-19T03:26:12.773Z,0
2017-11-19T03:26:53.144Z,0
2017-11-19T03:27:33.973Z,0
2017-11-19T03:28:14.339Z,0
2017-11-19T03:28:54.709Z,0
2017-11-19T03:29:35.273Z,0
2017-11-19T03:30:15.705Z,0
2017-11-19T03:30:56.715Z,0
2017-11-19T03:31:37.810Z,0
2017-11-19T03:32:18.494Z,0
2017-11-19T03:32:59.078Z,0
2017-11-19T03:33:39.750Z,0
2017-11-19T03:34:20.233Z,0
2017-11-19T03:35:00.751Z,0
2017-11-19T03:35:41.034Z,0
2017-11-19T03:36:21.426Z,0
2017-11-19T03:37:02.488Z,0
2017-11-19T03:37:42.973Z,0
2017-11-19T03:38:23.489Z,0
2017-11-19T03:39:04.109Z,0
2017-11-19T03:39:44.546Z,0
2017-11-19T03:40:25.206Z,0
2017-11-19T03:41:05.629Z,0
2017-11-19T03:41:46.254Z,0
2017-11-19T03:42:26.430Z,0
2017-11-19T03:43:06.850Z,0
2017-11-19T03:43:47.484Z,0
2017-11-19T03:44:27.969Z,0
2017-11-19T03:45:08.342Z,0
2017-11-19T03:45:48.839Z,0
2017-11-19T03:46:29.586Z,0
2017-11-19T03:47:10.170Z,0
2017-11-19T03:47:50.807Z,0
2017-11-19T03:48:31.452Z,0
2017-11-19T03:49:12.406Z,0
2017-11-19T03:49:53.100Z,0
2017-11-19T03:50:33.736Z,0
2017-11-19T03:51:14.168Z,0
2017-11-19T03:51:54.869Z,0
2017-11-19T03:52:35.308Z,0
2017-11-19T03:53:16.037Z,0
2017-11-19T03:53:56.582Z,0
2017-11-19T03:54:36.817Z,0
2017-11-19T03:55:17.513Z,0
2017-11-19T03:55:58.433Z,0
2017-11-19T03:56:39.128Z,0
2017-11-19T03:57:19.321Z,0
2017-11-19T03:57:59.938Z,0
2017-11-19T03:58:40.487Z,0
2017-11-19T03:59:21.055Z,0
2017-11-19T04:00:01.442Z,0
2017-11-19T04:00:43.547Z,0
2017-11-19T04:01:24.065Z,0
2017-11-19T04:02:05.627Z,0
2017-11-19T04:42:36.016Z,0
2017-11-19T04:43:16.413Z,0
2017-11-19T04:43:57.326Z,0
2017-11-19T04:44:38.419Z,0
2017-11-19T04:45:18.551Z,0
2017-11-19T04:45:58.935Z,0
2017-11-19T04:46:39.344Z,0
2017-11-19T04:47:19.722Z,0
2017-11-19T04:48:00.139Z,0
2017-11-19T04:48:40.799Z,0
2017-11-19T04:49:20.952Z,0
2017-11-19T04:50:01.448Z,0
2017-11-19T04:50:41.882Z,0
2017-11-19T04:51:22.407Z,0
2017-11-19T04:52:02.844Z,0
2017-11-19T04:52:43.327Z,0
2017-11-19T04:53:23.713Z,0
2017-11-19T04:54:05.020Z,0
2017-11-19T04:54:45.462Z,0
2017-11-19T04:55:25.953Z,0
2017-11-19T04:56:06.396Z,0
2017-11-19T04:56:46.883Z,0
2017-11-19T04:57:28.051Z,0
2017-11-19T04:58:08.434Z,0
2017-11-19T04:58:48.808Z,0
2017-11-19T04:59:29.193Z,0
2017-11-19T05:00:09.701Z,0
2017-11-19T05:00:50.213Z,0
2017-11-19T05:01:30.697Z,0
2017-11-19T05:02:11.311Z,0
2017-11-19T05:02:51.457Z,0
2017-11-19T05:03:31.945Z,0
2017-11-19T05:04:12.808Z,0
2017-11-19T05:04:53.688Z,0
2017-11-19T05:05:34.169Z,0
2017-11-19T05:06:15.544Z,0
2017-11-19T05:06:56.463Z,0
2017-11-19T05:07:36.992Z,0
2017-11-19T05:08:18.185Z,0
2017-11-19T05:08:58.453Z,0
2017-11-19T05:09:39.510Z,0
2017-11-19T05:10:20.224Z,0
2017-11-19T05:11:00.514Z,0
2017-11-19T05:11:41.752Z,0
2017-11-19T05:12:22.289Z,0
2017-11-19T05:13:03.478Z,0
2017-11-19T05:13:44.193Z,0
2017-11-19T05:14:25.397Z,0
2017-11-19T05:15:05.979Z,0
2017-11-19T05:15:46.368Z,0
2017-11-19T05:16:28.658Z,0
2017-11-19T05:17:09.500Z,0
2017-11-19T05:17:50.369Z,0
2017-11-19T05:18:30.665Z,0
2017-11-19T05:19:12.483Z,0
2017-11-19T05:19:53.277Z,0
2017-11-19T05:20:34.273Z,0
2017-11-19T05:21:15.812Z,0
2017-11-19T05:21:56.453Z,0
2017-11-19T05:22:36.611Z,0
2017-11-19T05:23:16.996Z,0
2017-11-19T05:23:58.441Z,0
2017-11-19T05:24:38.941Z,0
2017-11-19T05:25:19.560Z,0
2017-11-19T05:26:00.392Z,0
2017-11-19T05:26:40.994Z,0
2017-11-19T05:27:21.476Z,0
2017-11-19T05:28:02.229Z,0
2017-11-19T05:28:42.730Z,0
2017-11-19T05:29:23.166Z,0
2017-11-19T05:30:03.730Z,0
2017-11-19T05:30:44.056Z,0
2017-11-19T05:31:24.500Z,0
2017-11-19T05:32:04.962Z,0
2017-11-19T05:32:45.442Z,0
2017-11-19T05:33:25.791Z,0
2017-11-19T05:34:06.401Z,0
2017-11-19T05:34:47.570Z,0
2017-11-19T05:35:27.964Z,0
2017-11-19T05:36:08.550Z,0
2017-11-19T05:36:48.927Z,0
2017-11-19T05:37:30.038Z,0
2017-11-19T05:38:11.359Z,0
2017-11-19T05:38:52.720Z,0
2017-11-19T05:39:33.654Z,0
2017-11-19T05:40:14.305Z,0
2017-11-19T05:40:55.463Z,0
2017-11-19T05:41:35.827Z,0
2017-11-19T05:42:16.802Z,0
2017-11-19T05:42:58.728Z,0
2017-11-19T05:43:39.018Z,0
2017-11-19T05:44:19.375Z,0
2017-11-19T05:45:02.653Z,0
2017-11-19T05:45:43.084Z,0
2017-11-19T05:46:23.486Z,0
2017-11-19T05:47:04.015Z,0
2017-11-19T05:47:44.372Z,0
2017-11-19T05:48:24.914Z,0
2017-11-19T05:49:05.269Z,0
2017-11-19T05:49:45.737Z,0
2017-11-19T05:50:26.114Z,0
2017-11-19T05:51:06.646Z,0
2017-11-19T05:51:47.023Z,0
2017-11-19T05:52:27.383Z,0
2017-11-19T05:53:07.801Z,0
2017-11-19T05:53:48.232Z,0
2017-11-19T05:54:28.910Z,0
2017-11-19T05:55:09.228Z,0
2017-11-19T05:55:49.566Z,0
2017-11-19T05:56:29.946Z,0
2017-11-19T05:57:10.518Z,0
2017-11-19T05:57:51.038Z,0
2017-11-19T05:58:32.236Z,0
2017-11-19T05:59:12.192Z,0
2017-11-19T05:59:52.673Z,0
2017-11-19T06:00:33.008Z,0
2017-11-19T06:01:13.500Z,0
2017-11-19T06:01:54.041Z,0
2017-11-19T06:02:34.379Z,0
2017-11-19T06:03:14.842Z,0
2017-11-19T06:03:55.720Z,0
2017-11-19T06:04:36.506Z,0
2017-11-19T06:05:17.771Z,0
2017-11-19T06:05:58.072Z,0
2017-11-19T06:06:38.524Z,0
2017-11-19T06:07:19.416Z,0
2017-11-19T06:07:59.871Z,0
2017-11-19T06:08:41.698Z,0
2017-11-19T06:09:22.489Z,0
2017-11-19T06:10:02.859Z,0
2017-11-19T06:10:43.408Z,0
2017-11-19T06:11:23.851Z,0
2017-11-19T06:12:04.921Z,0
2017-11-19T06:12:45.302Z,0
2017-11-19T06:13:25.861Z,0
2017-11-19T06:14:06.327Z,0
2017-11-19T06:14:46.797Z,0
2017-11-19T06:15:27.471Z,0
2017-11-19T06:16:07.936Z,0
2017-11-19T06:16:48.463Z,0
2017-11-19T06:17:28.865Z,0
2017-11-19T06:18:09.312Z,0
2017-11-19T06:18:49.720Z,0
2017-11-19T06:19:30.212Z,0
2017-11-19T06:20:10.572Z,0
2017-11-19T06:20:51.430Z,0
2017-11-19T06:21:31.992Z,0
2017-11-19T06:22:12.433Z,0
2017-11-19T06:22:52.872Z,0
2017-11-19T06:23:33.290Z,0
2017-11-19T06:24:13.974Z,0
2017-11-19T06:24:54.373Z,0
2017-11-19T06:25:34.821Z,0
2017-11-19T06:26:15.251Z,0
2017-11-19T06:26:55.587Z,0
2017-11-19T06:27:36.065Z,0
2017-11-19T06:28:16.540Z,0
2017-11-19T06:28:56.909Z,0
2017-11-19T06:29:37.350Z,0
2017-11-19T06:30:18.503Z,0
2017-11-19T06:30:59.406Z,0
2017-11-19T06:31:40.016Z,0
2017-11-19T06:32:20.764Z,0
2017-11-19T06:33:01.215Z,0
2017-11-19T06:33:41.588Z,0
2017-11-19T06:34:22.442Z,0
2017-11-19T06:35:03.144Z,0
2017-11-19T06:35:44.443Z,0
2017-11-19T06:36:24.816Z,0
2017-11-19T06:37:05.169Z,0
2017-11-19T06:37:45.660Z,0
2017-11-19T06:38:27.167Z,0
2017-11-19T06:39:07.777Z,0
2017-11-19T06:39:48.073Z,0
2017-11-19T06:40:28.517Z,0
2017-11-19T06:41:09.027Z,0
2017-11-19T06:41:49.777Z,0
2017-11-19T06:42:30.216Z,0
2017-11-19T06:43:10.737Z,0
2017-11-19T06:43:51.127Z,0
2017-11-19T06:44:32.338Z,0
2017-11-19T06:45:12.888Z,0
2017-11-19T06:45:53.623Z,0
2017-11-19T06:46:34.397Z,0
2017-11-19T06:47:15.024Z,0
2017-11-19T06:47:55.424Z,0
2017-11-19T06:48:35.848Z,0
2017-11-19T06:49:17.494Z,0
2017-11-19T06:49:58.381Z,0
2017-11-19T06:50:38.729Z,0
2017-11-19T06:51:19.225Z,0
2017-11-19T06:52:01.304Z,0
2017-11-19T06:52:41.917Z,0
2017-11-19T06:53:22.405Z,0
2017-11-19T06:54:02.959Z,0
2017-11-19T06:54:43.234Z,0
2017-11-19T06:55:24.467Z,0
2017-11-19T06:56:04.964Z,0
2017-11-19T06:56:46.981Z,0
2017-11-19T06:57:27.906Z,0
2017-11-19T06:58:08.279Z,0
2017-11-19T06:58:49.472Z,0
2017-11-19T06:59:29.961Z,0
2017-11-19T07:00:10.473Z,0
2017-11-19T07:00:51.131Z,0
2017-11-19T07:01:31.780Z,0
2017-11-19T07:02:12.113Z,0
2017-11-19T07:02:52.677Z,0
2017-11-19T07:03:33.306Z,0
2017-11-19T07:04:13.722Z,0
2017-11-19T07:04:54.166Z,0
2017-11-19T07:05:34.547Z,0
2017-11-19T07:06:15.065Z,0
2017-11-19T07:06:55.526Z,0
2017-11-19T07:07:35.932Z,5
2017-11-19T07:08:16.441Z,5
2017-11-19T07:08:56.963Z,5
2017-11-19T07:09:37.326Z,5
2017-11-19T07:10:17.871Z,5
2017-11-19T07:10:58.238Z,5
2017-11-19T07:11:38.890Z,5
2017-11-19T07:12:20.190Z,5
2017-11-19T07:13:00.589Z,5
2017-11-19T07:13:40.946Z,5
2017-11-19T07:14:21.528Z,5
2017-11-19T07:15:01.741Z,5
2017-11-19T07:15:42.301Z,5
2017-11-19T07:16:22.707Z,5
2017-11-19T07:17:03.185Z,5
2017-11-19T07:17:43.663Z,5
2017-11-19T07:18:24.118Z,5
2017-11-19T07:19:04.614Z,5
2017-11-19T07:19:44.955Z,5
2017-11-19T07:20:25.370Z,5
2017-11-19T07:21:05.971Z,10
2017-11-19T07:21:46.387Z,10
2017-11-19T07:22:26.852Z,10
2017-11-19T07:23:07.365Z,10
2017-11-19T07:23:47.946Z,10
2017-11-19T07:24:28.331Z,10
2017-11-19T07:25:08.868Z,10
2017-11-19T07:25:49.461Z,15
2017-11-19T07:26:29.953Z,15
2017-11-19T07:27:10.310Z,20
2017-11-19T07:27:50.771Z,20
2017-11-19T07:28:31.117Z,20
2017-11-19T07:29:11.479Z,20
2017-11-19T07:29:51.989Z,20
2017-11-19T07:30:32.725Z,20
2017-11-19T07:31:13.169Z,20
2017-11-19T07:31:53.729Z,20
2017-11-19T07:32:34.215Z,15
2017-11-19T07:33:15.130Z,10
2017-11-19T07:33:55.682Z,10
2017-11-19T07:34:36.150Z,10
2017-11-19T07:35:16.566Z,10
2017-11-19T07:35:57.080Z,5
2017-11-19T07:36:37.487Z,10
2017-11-19T07:37:18.427Z,10
2017-11-19T07:37:58.399Z,10
2017-11-19T07:38:38.831Z,10
2017-11-19T07:39:19.202Z,10
2017-11-19T07:39:59.548Z,5
2017-11-19T07:40:40.115Z,0
2017-11-19T07:41:20.740Z,0
2017-11-19T07:42:01.293Z,0
2017-11-19T07:42:41.709Z,0
2017-11-19T07:43:22.447Z,0
2017-11-19T07:44:02.781Z,0
2017-11-19T07:44:43.324Z,0
2017-11-19T07:45:23.727Z,5
2017-11-19T07:46:04.175Z,5
2017-11-19T07:46:45.433Z,5
2017-11-19T07:47:25.083Z,5
2017-11-19T07:48:05.525Z,10
2017-11-19T07:48:46.125Z,10
2017-11-19T07:49:26.515Z,10
2017-11-19T07:50:06.971Z,10
2017-11-19T07:50:47.426Z,10
2017-11-19T07:51:27.896Z,10
2017-11-19T07:52:08.524Z,10
2017-11-19T07:52:48.982Z,10
2017-11-19T07:53:29.380Z,10
2017-11-19T07:54:09.893Z,10
2017-11-19T07:54:50.299Z,10
2017-11-19T07:55:30.847Z,10
2017-11-19T07:56:11.305Z,15
2017-11-19T07:56:51.761Z,15
2017-11-19T07:57:32.175Z,15
2017-11-19T07:58:12.556Z,15
2017-11-19T07:58:53.090Z,15
2017-11-19T07:59:35.826Z,10
2017-11-19T08:00:16.138Z,10
2017-11-19T08:00:56.534Z,10
2017-11-19T08:01:36.967Z,5
2017-11-19T08:02:17.413Z,10
2017-11-19T08:02:57.940Z,10
2017-11-19T08:03:38.796Z,10
2017-11-19T08:04:19.330Z,15
2017-11-19T08:04:59.738Z,15
2017-11-19T08:05:40.288Z,20
2017-11-19T08:06:20.659Z,20
2017-11-19T08:07:01.127Z,20
2017-11-19T08:07:41.646Z,25
2017-11-19T08:08:21.950Z,25
2017-11-19T08:09:02.529Z,25
2017-11-19T08:09:43.079Z,25
2017-11-19T08:10:24.086Z,25
2017-11-19T08:11:04.461Z,20
2017-11-19T08:11:45.045Z,20
2017-11-19T08:12:25.909Z,25
2017-11-19T08:13:06.344Z,25
2017-11-19T08:13:46.845Z,25
2017-11-19T08:14:27.318Z,20
2017-11-19T08:15:07.760Z,20
2017-11-19T08:15:48.235Z,20
2017-11-19T08:16:28.552Z,20
2017-11-19T08:17:08.922Z,20
2017-11-19T08:17:49.276Z,20
2017-11-19T08:18:29.748Z,25
2017-11-19T08:19:10.164Z,30
2017-11-19T08:19:50.520Z,30
2017-11-19T08:20:31.068Z,30
2017-11-19T08:21:11.488Z,25
2017-11-19T08:21:51.869Z,25
2017-11-19T08:22:32.376Z,25
2017-11-19T08:23:12.869Z,25
2017-11-19T08:23:53.573Z,25
2017-11-19T08:24:34.014Z,25
2017-11-19T08:25:14.412Z,25
2017-11-19T08:25:54.833Z,30
2017-11-19T08:26:35.389Z,30
2017-11-19T08:27:15.863Z,35
2017-11-19T08:27:56.525Z,35
2017-11-19T08:28:37.844Z,30
2017-11-19T08:29:18.334Z,30
2017-11-19T08:30:01.228Z,35
2017-11-19T08:30:42.795Z,40
2017-11-19T08:31:23.956Z,45
2017-11-19T08:32:04.598Z,50
2017-11-19T08:32:44.951Z,55
2017-11-19T08:33:25.404Z,55
2017-11-19T08:34:05.882Z,55
2017-11-19T08:34:48.046Z,55
2017-11-19T08:35:29.233Z,50
2017-11-19T08:36:11.001Z,50
2017-11-19T08:36:51.668Z,50
2017-11-19T08:37:32.068Z,45
2017-11-19T08:38:12.877Z,45
2017-11-19T08:38:54.158Z,45
2017-11-19T08:39:34.914Z,50
2017-11-19T08:40:16.771Z,50
2017-11-19T08:40:57.139Z,45
2017-11-19T08:41:38.566Z,40
2017-11-19T08:42:19.330Z,40
2017-11-19T08:42:59.664Z,40
2017-11-19T08:43:42.796Z,40
2017-11-19T08:44:27.948Z,40
2017-11-19T08:45:08.250Z,45
2017-11-19T08:48:10.045Z,30
2017-11-19T08:49:05.307Z,25
2017-11-19T08:51:22.911Z,20
2017-11-19T08:52:03.819Z,20
2017-11-19T08:52:46.111Z,20
2017-11-19T08:53:27.191Z,25
2017-11-19T08:54:09.418Z,30
2017-11-19T08:54:51.143Z,40
2017-11-19T08:55:31.780Z,40
2017-11-19T08:56:12.138Z,30
2017-11-19T08:56:53.695Z,25
2017-11-19T08:57:34.483Z,25
2017-11-19T08:58:16.309Z,35
2017-11-19T08:58:56.201Z,45
2017-11-19T08:59:37.158Z,45
2017-11-19T09:00:17.886Z,40
2017-11-19T09:00:58.987Z,45
2017-11-19T09:01:39.576Z,45
2017-11-19T09:02:20.055Z,45
2017-11-19T09:03:00.514Z,45
2017-11-19T09:03:41.369Z,45
2017-11-19T09:04:22.515Z,50
2017-11-19T09:05:03.672Z,50
2017-11-19T09:05:44.552Z,45
2017-11-19T09:06:24.962Z,45
2017-11-19T09:07:05.325Z,50
2017-11-19T09:07:46.295Z,50
2017-11-19T09:08:28.113Z,50
2017-11-19T09:09:09.581Z,50
2017-11-19T09:09:50.383Z,50
2017-11-19T09:10:30.944Z,50
2017-11-19T09:11:11.358Z,50
2017-11-19T09:11:51.729Z,50
2017-11-19T09:12:32.392Z,45
2017-11-19T09:13:13.876Z,50
2017-11-19T09:13:54.359Z,50
2017-11-19T09:14:35.428Z,50
2017-11-19T09:15:16.543Z,50
2017-11-19T09:15:57.228Z,50
2017-11-19T09:16:37.835Z,50
2017-11-19T09:17:18.988Z,50
2017-11-19T09:17:59.418Z,50
2017-11-19T09:18:39.921Z,50
2017-11-19T09:19:20.314Z,50
2017-11-19T09:20:01.976Z,50
2017-11-19T09:20:42.540Z,50
2017-11-19T09:21:23.356Z,50
2017-11-19T09:22:03.758Z,50
2017-11-19T09:22:44.162Z,50
2017-11-19T09:23:25.972Z,45
2017-11-19T09:24:06.507Z,45
2017-11-19T09:24:47.786Z,50
2017-11-19T09:25:28.692Z,50
2017-11-19T09:26:09.399Z,50
2017-11-19T09:26:50.941Z,45
2017-11-19T09:27:31.386Z,45
2017-11-19T09:28:11.765Z,45
2017-11-19T09:28:52.307Z,45
2017-11-19T09:29:32.733Z,45
2017-11-19T09:30:13.162Z,45
2017-11-19T09:30:53.650Z,45
2017-11-19T09:31:34.292Z,45
2017-11-19T09:32:15.906Z,50
2017-11-19T09:32:55.430Z,40
2017-11-19T09:33:36.054Z,45
2017-11-19T09:34:16.602Z,45
2017-11-19T09:34:57.231Z,50
2017-11-19T09:35:38.872Z,45
2017-11-19T09:36:19.403Z,50
2017-11-19T09:36:59.997Z,45
2017-11-19T09:37:40.449Z,45
2017-11-19T09:38:20.919Z,45
2017-11-19T09:39:01.493Z,45
2017-11-19T09:39:43.696Z,45
2017-11-19T09:40:24.237Z,45
2017-11-19T09:41:05.842Z,45
2017-11-19T09:41:46.883Z,45
2017-11-19T09:42:27.439Z,45
2017-11-19T09:43:07.906Z,45
2017-11-19T09:43:48.348Z,50
2017-11-19T09:44:29.698Z,50
2017-11-19T09:45:12.655Z,50
2017-11-19T09:45:53.050Z,50
2017-11-19T09:46:34.497Z,55
2017-11-19T09:47:15.328Z,60
2017-11-19T09:47:55.925Z,60
2017-11-19T09:48:36.478Z,60
2017-11-19T09:49:16.962Z,65
2017-11-19T09:49:58.314Z,65
2017-11-19T09:50:38.716Z,60
2017-11-19T09:51:20.916Z,60
2017-11-19T09:52:00.485Z,60
2017-11-19T09:52:41.589Z,60
2017-11-19T09:53:22.121Z,55
2017-11-19T09:54:02.516Z,55
2017-11-19T09:54:43.067Z,55
2017-11-19T09:55:23.871Z,55
2017-11-19T09:56:05.480Z,50
2017-11-19T09:56:46.409Z,50
2017-11-19T09:57:26.909Z,50
2017-11-19T09:58:07.209Z,50
2017-11-19T09:58:47.547Z,50
2017-11-19T09:59:28.027Z,50
2017-11-19T10:00:08.341Z,50
2017-11-19T10:00:48.907Z,50
2017-11-19T10:01:29.372Z,50
2017-11-19T10:02:09.750Z,50
2017-11-19T10:02:50.252Z,50
2017-11-19T10:03:30.889Z,50
2017-11-19T10:42:05.450Z,50
2017-11-19T10:43:00.496Z,65
2017-11-19T10:43:46.787Z,70
2017-11-19T10:44:29.225Z,70
2017-11-19T10:45:10.797Z,65
2017-11-19T10:45:54.572Z,65
2017-11-19T10:46:35.299Z,65
2017-11-19T10:47:15.794Z,60
2017-11-19T10:47:56.953Z,60
2017-11-19T10:48:37.319Z,45
2017-11-19T10:49:19.059Z,45
2017-11-19T10:50:04.647Z,45
2017-11-19T10:50:46.721Z,60
2017-11-19T10:51:28.509Z,45
2017-11-19T10:52:10.236Z,55
2017-11-19T10:52:51.991Z,60
2017-11-19T10:53:34.865Z,60
2017-11-19T10:54:14.987Z,60
2017-11-19T10:54:55.921Z,65
2017-11-19T10:55:36.415Z,65
2017-11-19T10:56:17.993Z,65
2017-11-19T10:57:00.907Z,60
2017-11-19T10:57:41.141Z,60
2017-11-19T10:58:21.713Z,60
2017-11-19T10:59:02.137Z,60
2017-11-19T10:59:42.756Z,55
2017-11-19T11:00:23.149Z,55
2017-11-19T11:01:03.601Z,55
2017-11-19T11:01:44.174Z,55
2017-11-19T11:02:24.825Z,55
2017-11-19T11:03:10.121Z,55
2017-11-19T11:03:50.738Z,45
2017-11-19T11:04:31.371Z,45
2017-11-19T11:07:33.233Z,40
2017-11-19T11:08:29.747Z,40
2017-11-19T11:12:11.835Z,50
2017-11-19T11:12:52.499Z,50
2017-11-19T11:13:33.077Z,50
2017-11-19T11:14:14.069Z,45
2017-11-19T11:14:54.524Z,45
2017-11-19T11:15:35.544Z,45
2017-11-19T11:16:16.056Z,45
2017-11-19T11:16:56.766Z,45
2017-11-19T11:17:37.076Z,45
2017-11-19T11:18:17.610Z,45
2017-11-19T11:18:58.660Z,50
2017-11-19T11:19:39.135Z,50
2017-11-19T11:20:19.557Z,45
2017-11-19T11:21:00.145Z,45
2017-11-19T11:21:40.588Z,45
2017-11-19T11:22:21.107Z,45
2017-11-19T11:23:02.583Z,45